sensor_id;sensor_type;location;lat;lon;timestamp;P1;durP1;ratioP1;P2;durP2;ratioP2
49722;SDS011;43484;43.608;1.458;2023-04-03T00:00:32;9.15;;;1.85;;
49722;SDS011;43484;43.608;1.458;2023-04-03T00:03:00;9.15;;;2.08;;
49722;SDS011;43484;43.608;1.458;2023-04-03T00:05:26;4.88;;;1.95;;
49722;SDS011;43484;43.608;1.458;2023-04-03T00:07:53;5.65;;;1.73;;
49722;SDS011;43484;43.608;1.458;2023-04-03T00:10:19;7.78;;;2.20;;
49722;SDS011;43484;43.608;1.458;2023-04-03T00:12:46;4.93;;;1.92;;
49722;SDS011;43484;43.608;1.458;2023-04-03T00:15:13;6.68;;;2.35;;
49722;SDS011;43484;43.608;1.458;2023-04-03T00:17:40;5.00;;;2.10;;
49722;SDS011;43484;43.608;1.458;2023-04-03T00:20:07;5.55;;;1.75;;
49722;SDS011;43484;43.608;1.458;2023-04-03T00:22:34;4.30;;;1.80;;
49722;SDS011;43484;43.608;1.458;2023-04-03T00:25:01;7.32;;;2.00;;
49722;SDS011;43484;43.608;1.458;2023-04-03T00:27:28;8.02;;;2.83;;
49722;SDS011;43484;43.608;1.458;2023-04-03T00:29:54;7.65;;;2.33;;
49722;SDS011;43484;43.608;1.458;2023-04-03T00:32:21;12.13;;;2.00;;
49722;SDS011;43484;43.608;1.458;2023-04-03T00:34:47;6.38;;;2.08;;
49722;SDS011;43484;43.608;1.458;2023-04-03T00:37:14;5.65;;;2.45;;
49722;SDS011;43484;43.608;1.458;2023-04-03T00:39:41;7.75;;;2.47;;
49722;SDS011;43484;43.608;1.458;2023-04-03T00:42:08;7.28;;;2.25;;
49722;SDS011;43484;43.608;1.458;2023-04-03T00:47:01;5.95;;;1.98;;
49722;SDS011;43484;43.608;1.458;2023-04-03T00:49:31;6.70;;;1.85;;
49722;SDS011;43484;43.608;1.458;2023-04-03T00:51:58;6.25;;;2.78;;
49722;SDS011;43484;43.608;1.458;2023-04-03T00:54:25;6.28;;;1.90;;
49722;SDS011;43484;43.608;1.458;2023-04-03T00:56:53;6.95;;;2.67;;
49722;SDS011;43484;43.608;1.458;2023-04-03T00:59:26;6.05;;;2.17;;
49722;SDS011;43484;43.608;1.458;2023-04-03T01:01:59;5.05;;;2.22;;
49722;SDS011;43484;43.608;1.458;2023-04-03T01:07:06;5.18;;;2.22;;
49722;SDS011;43484;43.608;1.458;2023-04-03T01:09:36;7.47;;;2.60;;
49722;SDS011;43484;43.608;1.458;2023-04-03T01:14:48;4.72;;;2.38;;
49722;SDS011;43484;43.608;1.458;2023-04-03T01:28:13;5.10;;;2.08;;
49722;SDS011;43484;43.608;1.458;2023-04-03T01:30:47;5.97;;;2.10;;
49722;SDS011;43484;43.608;1.458;2023-04-03T01:33:17;4.18;;;2.00;;
49722;SDS011;43484;43.608;1.458;2023-04-03T01:35:44;6.22;;;1.98;;
49722;SDS011;43484;43.608;1.458;2023-04-03T01:38:11;5.85;;;2.30;;
49722;SDS011;43484;43.608;1.458;2023-04-03T01:40:38;8.18;;;2.50;;
49722;SDS011;43484;43.608;1.458;2023-04-03T01:43:04;9.85;;;2.53;;
49722;SDS011;43484;43.608;1.458;2023-04-03T01:45:31;2.83;;;2.17;;
49722;SDS011;43484;43.608;1.458;2023-04-03T01:47:57;7.03;;;2.10;;
49722;SDS011;43484;43.608;1.458;2023-04-03T01:50:24;4.55;;;2.53;;
49722;SDS011;43484;43.608;1.458;2023-04-03T01:52:51;5.35;;;2.38;;
49722;SDS011;43484;43.608;1.458;2023-04-03T01:55:17;3.80;;;2.50;;
49722;SDS011;43484;43.608;1.458;2023-04-03T01:57:44;5.03;;;2.95;;
49722;SDS011;43484;43.608;1.458;2023-04-03T02:00:11;7.65;;;3.03;;
49722;SDS011;43484;43.608;1.458;2023-04-03T02:02:38;4.88;;;2.80;;
49722;SDS011;43484;43.608;1.458;2023-04-03T02:05:06;4.40;;;3.45;;
49722;SDS011;43484;43.608;1.458;2023-04-03T02:07:32;6.80;;;2.65;;
49722;SDS011;43484;43.608;1.458;2023-04-03T02:09:59;2.92;;;2.50;;
49722;SDS011;43484;43.608;1.458;2023-04-03T02:12:26;10.43;;;3.20;;
49722;SDS011;43484;43.608;1.458;2023-04-03T02:14:52;8.23;;;2.90;;
49722;SDS011;43484;43.608;1.458;2023-04-03T02:17:19;5.50;;;2.63;;
49722;SDS011;43484;43.608;1.458;2023-04-03T02:19:46;5.53;;;3.00;;
49722;SDS011;43484;43.608;1.458;2023-04-03T02:22:12;4.38;;;2.88;;
49722;SDS011;43484;43.608;1.458;2023-04-03T02:24:39;7.60;;;3.25;;
49722;SDS011;43484;43.608;1.458;2023-04-03T02:27:06;8.80;;;2.70;;
49722;SDS011;43484;43.608;1.458;2023-04-03T02:29:33;4.70;;;2.78;;
49722;SDS011;43484;43.608;1.458;2023-04-03T02:32:00;4.13;;;2.97;;
49722;SDS011;43484;43.608;1.458;2023-04-03T02:34:26;5.25;;;2.65;;
49722;SDS011;43484;43.608;1.458;2023-04-03T02:36:53;5.22;;;2.83;;
49722;SDS011;43484;43.608;1.458;2023-04-03T02:39:19;4.78;;;2.40;;
49722;SDS011;43484;43.608;1.458;2023-04-03T02:41:46;7.30;;;3.17;;
49722;SDS011;43484;43.608;1.458;2023-04-03T02:44:13;5.80;;;2.65;;
49722;SDS011;43484;43.608;1.458;2023-04-03T02:46:39;5.68;;;3.47;;
49722;SDS011;43484;43.608;1.458;2023-04-03T02:49:06;6.38;;;2.67;;
49722;SDS011;43484;43.608;1.458;2023-04-03T02:51:33;5.55;;;2.88;;
49722;SDS011;43484;43.608;1.458;2023-04-03T02:53:59;3.83;;;2.55;;
49722;SDS011;43484;43.608;1.458;2023-04-03T02:56:26;4.18;;;2.80;;
49722;SDS011;43484;43.608;1.458;2023-04-03T02:58:53;2.97;;;2.67;;
49722;SDS011;43484;43.608;1.458;2023-04-03T03:01:20;4.40;;;2.65;;
49722;SDS011;43484;43.608;1.458;2023-04-03T03:03:46;5.20;;;2.90;;
49722;SDS011;43484;43.608;1.458;2023-04-03T03:06:14;6.82;;;3.03;;
49722;SDS011;43484;43.608;1.458;2023-04-03T03:08:42;6.03;;;3.05;;
49722;SDS011;43484;43.608;1.458;2023-04-03T03:11:09;8.65;;;3.20;;
49722;SDS011;43484;43.608;1.458;2023-04-03T03:13:36;8.48;;;3.05;;
49722;SDS011;43484;43.608;1.458;2023-04-03T03:16:03;7.30;;;3.25;;
49722;SDS011;43484;43.608;1.458;2023-04-03T03:18:30;6.25;;;3.05;;
49722;SDS011;43484;43.608;1.458;2023-04-03T03:20:58;4.05;;;3.00;;
49722;SDS011;43484;43.608;1.458;2023-04-03T03:23:26;4.28;;;2.72;;
49722;SDS011;43484;43.608;1.458;2023-04-03T03:25:58;4.97;;;3.00;;
49722;SDS011;43484;43.608;1.458;2023-04-03T03:28:27;5.55;;;2.72;;
49722;SDS011;43484;43.608;1.458;2023-04-03T03:30:53;4.38;;;2.95;;
49722;SDS011;43484;43.608;1.458;2023-04-03T03:33:20;9.30;;;3.10;;
49722;SDS011;43484;43.608;1.458;2023-04-03T03:35:47;3.83;;;3.28;;
49722;SDS011;43484;43.608;1.458;2023-04-03T03:38:14;4.90;;;2.47;;
49722;SDS011;43484;43.608;1.458;2023-04-03T03:40:40;2.80;;;2.50;;
49722;SDS011;43484;43.608;1.458;2023-04-03T03:43:07;5.63;;;3.03;;
49722;SDS011;43484;43.608;1.458;2023-04-03T03:45:33;6.25;;;2.92;;
49722;SDS011;43484;43.608;1.458;2023-04-03T03:48:01;6.05;;;2.88;;
49722;SDS011;43484;43.608;1.458;2023-04-03T03:50:28;4.68;;;3.10;;
49722;SDS011;43484;43.608;1.458;2023-04-03T03:52:54;6.05;;;3.20;;
49722;SDS011;43484;43.608;1.458;2023-04-03T03:55:21;6.68;;;3.38;;
49722;SDS011;43484;43.608;1.458;2023-04-03T03:57:48;3.65;;;3.15;;
49722;SDS011;43484;43.608;1.458;2023-04-03T04:00:14;7.40;;;3.25;;
49722;SDS011;43484;43.608;1.458;2023-04-03T04:02:41;7.95;;;3.35;;
49722;SDS011;43484;43.608;1.458;2023-04-03T04:05:09;7.00;;;3.35;;
49722;SDS011;43484;43.608;1.458;2023-04-03T04:07:36;5.68;;;3.33;;
49722;SDS011;43484;43.608;1.458;2023-04-03T04:10:03;3.58;;;3.08;;
49722;SDS011;43484;43.608;1.458;2023-04-03T04:12:30;8.70;;;3.50;;
49722;SDS011;43484;43.608;1.458;2023-04-03T04:14:57;5.03;;;3.70;;
49722;SDS011;43484;43.608;1.458;2023-04-03T04:17:24;6.88;;;3.75;;
49722;SDS011;43484;43.608;1.458;2023-04-03T04:19:50;5.68;;;3.88;;
49722;SDS011;43484;43.608;1.458;2023-04-03T04:22:17;6.50;;;3.60;;
49722;SDS011;43484;43.608;1.458;2023-04-03T04:24:44;9.75;;;3.35;;
49722;SDS011;43484;43.608;1.458;2023-04-03T04:27:10;7.10;;;3.63;;
49722;SDS011;43484;43.608;1.458;2023-04-03T04:29:37;5.53;;;3.58;;
49722;SDS011;43484;43.608;1.458;2023-04-03T04:32:04;7.75;;;3.47;;
49722;SDS011;43484;43.608;1.458;2023-04-03T04:34:31;5.85;;;3.33;;
49722;SDS011;43484;43.608;1.458;2023-04-03T04:36:57;5.95;;;3.22;;
49722;SDS011;43484;43.608;1.458;2023-04-03T04:39:24;6.15;;;3.47;;
49722;SDS011;43484;43.608;1.458;2023-04-03T04:41:51;3.58;;;3.20;;
49722;SDS011;43484;43.608;1.458;2023-04-03T04:44:18;5.05;;;3.60;;
49722;SDS011;43484;43.608;1.458;2023-04-03T04:46:46;6.97;;;3.85;;
49722;SDS011;43484;43.608;1.458;2023-04-03T04:49:12;6.32;;;4.00;;
49722;SDS011;43484;43.608;1.458;2023-04-03T04:51:39;5.47;;;3.70;;
49722;SDS011;43484;43.608;1.458;2023-04-03T04:54:17;7.53;;;3.78;;
49722;SDS011;43484;43.608;1.458;2023-04-03T04:56:43;6.90;;;3.83;;
49722;SDS011;43484;43.608;1.458;2023-04-03T04:59:10;8.63;;;4.22;;
49722;SDS011;43484;43.608;1.458;2023-04-03T05:01:36;7.18;;;4.00;;
49722;SDS011;43484;43.608;1.458;2023-04-03T05:04:03;5.90;;;4.35;;
49722;SDS011;43484;43.608;1.458;2023-04-03T05:06:30;5.68;;;3.67;;
49722;SDS011;43484;43.608;1.458;2023-04-03T05:08:58;10.38;;;4.22;;
49722;SDS011;43484;43.608;1.458;2023-04-03T05:11:25;11.55;;;4.57;;
49722;SDS011;43484;43.608;1.458;2023-04-03T05:13:52;10.20;;;3.97;;
49722;SDS011;43484;43.608;1.458;2023-04-03T05:16:19;7.78;;;3.85;;
49722;SDS011;43484;43.608;1.458;2023-04-03T05:18:46;4.35;;;3.95;;
49722;SDS011;43484;43.608;1.458;2023-04-03T05:21:12;5.30;;;3.63;;
49722;SDS011;43484;43.608;1.458;2023-04-03T05:23:39;5.57;;;4.03;;
49722;SDS011;43484;43.608;1.458;2023-04-03T05:26:06;7.95;;;4.30;;
49722;SDS011;43484;43.608;1.458;2023-04-03T05:28:32;7.22;;;4.00;;
49722;SDS011;43484;43.608;1.458;2023-04-03T05:30:59;6.68;;;4.55;;
49722;SDS011;43484;43.608;1.458;2023-04-03T05:33:26;5.70;;;3.92;;
49722;SDS011;43484;43.608;1.458;2023-04-03T05:35:53;8.07;;;4.20;;
49722;SDS011;43484;43.608;1.458;2023-04-03T05:38:21;6.13;;;4.03;;
49722;SDS011;43484;43.608;1.458;2023-04-03T05:40:48;11.00;;;4.68;;
49722;SDS011;43484;43.608;1.458;2023-04-03T05:43:14;7.97;;;4.57;;
49722;SDS011;43484;43.608;1.458;2023-04-03T05:45:42;6.85;;;4.80;;
49722;SDS011;43484;43.608;1.458;2023-04-03T05:48:12;8.80;;;4.63;;
49722;SDS011;43484;43.608;1.458;2023-04-03T05:50:39;5.15;;;3.30;;
49722;SDS011;43484;43.608;1.458;2023-04-03T05:53:10;6.30;;;3.97;;
49722;SDS011;43484;43.608;1.458;2023-04-03T05:55:44;8.93;;;4.28;;
49722;SDS011;43484;43.608;1.458;2023-04-03T05:58:11;4.63;;;3.95;;
49722;SDS011;43484;43.608;1.458;2023-04-03T06:00:37;8.32;;;4.10;;
49722;SDS011;43484;43.608;1.458;2023-04-03T06:03:04;5.15;;;4.45;;
49722;SDS011;43484;43.608;1.458;2023-04-03T06:05:31;10.43;;;4.35;;
49722;SDS011;43484;43.608;1.458;2023-04-03T06:07:58;7.65;;;4.22;;
49722;SDS011;43484;43.608;1.458;2023-04-03T06:10:24;8.38;;;4.35;;
49722;SDS011;43484;43.608;1.458;2023-04-03T06:12:51;8.73;;;4.50;;
49722;SDS011;43484;43.608;1.458;2023-04-03T06:15:17;6.10;;;4.30;;
49722;SDS011;43484;43.608;1.458;2023-04-03T06:17:44;6.78;;;3.97;;
49722;SDS011;43484;43.608;1.458;2023-04-03T06:20:11;5.95;;;3.90;;
49722;SDS011;43484;43.608;1.458;2023-04-03T06:22:38;8.75;;;4.43;;
49722;SDS011;43484;43.608;1.458;2023-04-03T06:25:05;10.60;;;4.80;;
49722;SDS011;43484;43.608;1.458;2023-04-03T06:27:32;9.38;;;4.88;;
49722;SDS011;43484;43.608;1.458;2023-04-03T06:29:59;12.95;;;3.72;;
49722;SDS011;43484;43.608;1.458;2023-04-03T06:32:25;5.43;;;3.88;;
49722;SDS011;43484;43.608;1.458;2023-04-03T06:34:52;8.20;;;4.40;;
49722;SDS011;43484;43.608;1.458;2023-04-03T06:37:21;6.90;;;5.05;;
49722;SDS011;43484;43.608;1.458;2023-04-03T06:39:49;5.70;;;4.07;;
49722;SDS011;43484;43.608;1.458;2023-04-03T06:42:15;6.97;;;4.15;;
49722;SDS011;43484;43.608;1.458;2023-04-03T06:44:43;10.70;;;4.22;;
49722;SDS011;43484;43.608;1.458;2023-04-03T06:47:11;12.45;;;4.00;;
49722;SDS011;43484;43.608;1.458;2023-04-03T06:49:39;8.93;;;4.65;;
49722;SDS011;43484;43.608;1.458;2023-04-03T06:52:06;4.95;;;3.78;;
49722;SDS011;43484;43.608;1.458;2023-04-03T06:54:33;10.52;;;4.05;;
49722;SDS011;43484;43.608;1.458;2023-04-03T06:56:59;5.13;;;3.90;;
49722;SDS011;43484;43.608;1.458;2023-04-03T06:59:26;6.15;;;4.28;;
49722;SDS011;43484;43.608;1.458;2023-04-03T07:01:53;7.15;;;4.15;;
49722;SDS011;43484;43.608;1.458;2023-04-03T07:04:20;8.35;;;3.75;;
49722;SDS011;43484;43.608;1.458;2023-04-03T07:06:47;7.78;;;4.18;;
49722;SDS011;43484;43.608;1.458;2023-04-03T07:09:14;9.63;;;4.53;;
49722;SDS011;43484;43.608;1.458;2023-04-03T07:11:41;8.45;;;4.47;;
49722;SDS011;43484;43.608;1.458;2023-04-03T07:14:08;13.18;;;5.03;;
49722;SDS011;43484;43.608;1.458;2023-04-03T07:16:35;9.00;;;3.60;;
49722;SDS011;43484;43.608;1.458;2023-04-03T07:19:02;11.07;;;4.57;;
49722;SDS011;43484;43.608;1.458;2023-04-03T07:21:29;6.95;;;3.55;;
49722;SDS011;43484;43.608;1.458;2023-04-03T07:23:55;5.07;;;3.80;;
49722;SDS011;43484;43.608;1.458;2023-04-03T07:26:22;7.00;;;3.83;;
49722;SDS011;43484;43.608;1.458;2023-04-03T07:28:49;6.32;;;4.03;;
49722;SDS011;43484;43.608;1.458;2023-04-03T07:31:16;10.15;;;5.00;;
49722;SDS011;43484;43.608;1.458;2023-04-03T07:33:43;9.27;;;3.47;;
49722;SDS011;43484;43.608;1.458;2023-04-03T07:36:14;7.95;;;4.35;;
49722;SDS011;43484;43.608;1.458;2023-04-03T07:38:43;11.35;;;4.03;;
49722;SDS011;43484;43.608;1.458;2023-04-03T07:41:16;10.43;;;4.03;;
49722;SDS011;43484;43.608;1.458;2023-04-03T07:43:44;3.50;;;3.20;;
49722;SDS011;43484;43.608;1.458;2023-04-03T07:46:11;6.68;;;3.42;;
49722;SDS011;43484;43.608;1.458;2023-04-03T07:48:38;6.63;;;3.63;;
49722;SDS011;43484;43.608;1.458;2023-04-03T07:51:05;9.05;;;4.00;;
49722;SDS011;43484;43.608;1.458;2023-04-03T07:53:32;6.15;;;3.10;;
49722;SDS011;43484;43.608;1.458;2023-04-03T07:55:59;10.07;;;3.95;;
49722;SDS011;43484;43.608;1.458;2023-04-03T07:58:27;4.70;;;3.30;;
49722;SDS011;43484;43.608;1.458;2023-04-03T08:00:56;10.52;;;3.15;;
49722;SDS011;43484;43.608;1.458;2023-04-03T08:03:22;4.97;;;3.08;;
49722;SDS011;43484;43.608;1.458;2023-04-03T08:05:50;6.15;;;3.45;;
49722;SDS011;43484;43.608;1.458;2023-04-03T08:08:18;7.15;;;3.42;;
49722;SDS011;43484;43.608;1.458;2023-04-03T08:10:50;8.90;;;3.15;;
49722;SDS011;43484;43.608;1.458;2023-04-03T08:13:19;9.13;;;3.40;;
49722;SDS011;43484;43.608;1.458;2023-04-03T08:15:46;7.10;;;3.33;;
49722;SDS011;43484;43.608;1.458;2023-04-03T08:18:13;10.20;;;2.90;;
49722;SDS011;43484;43.608;1.458;2023-04-03T08:20:41;5.88;;;2.85;;
49722;SDS011;43484;43.608;1.458;2023-04-03T08:23:08;6.95;;;2.97;;
49722;SDS011;43484;43.608;1.458;2023-04-03T08:25:38;4.72;;;3.10;;
49722;SDS011;43484;43.608;1.458;2023-04-03T08:28:07;6.03;;;3.00;;
49722;SDS011;43484;43.608;1.458;2023-04-03T08:30:34;12.10;;;2.85;;
49722;SDS011;43484;43.608;1.458;2023-04-03T08:33:02;5.18;;;3.08;;
49722;SDS011;43484;43.608;1.458;2023-04-03T08:35:30;5.13;;;2.70;;
49722;SDS011;43484;43.608;1.458;2023-04-03T08:37:56;5.18;;;2.58;;
49722;SDS011;43484;43.608;1.458;2023-04-03T08:40:23;8.65;;;3.00;;
49722;SDS011;43484;43.608;1.458;2023-04-03T08:42:57;10.55;;;3.08;;
49722;SDS011;43484;43.608;1.458;2023-04-03T08:45:50;9.05;;;2.80;;
49722;SDS011;43484;43.608;1.458;2023-04-03T08:48:23;8.77;;;2.53;;
49722;SDS011;43484;43.608;1.458;2023-04-03T08:50:55;9.63;;;3.08;;
49722;SDS011;43484;43.608;1.458;2023-04-03T08:53:29;5.80;;;2.53;;
49722;SDS011;43484;43.608;1.458;2023-04-03T08:56:02;7.00;;;2.90;;
49722;SDS011;43484;43.608;1.458;2023-04-03T08:58:45;3.75;;;2.40;;
49722;SDS011;43484;43.608;1.458;2023-04-03T09:01:17;8.30;;;2.95;;
49722;SDS011;43484;43.608;1.458;2023-04-03T09:03:44;13.30;;;3.28;;
49722;SDS011;43484;43.608;1.458;2023-04-03T09:09:32;6.78;;;2.50;;
49722;SDS011;43484;43.608;1.458;2023-04-03T09:17:27;12.90;;;2.28;;
49722;SDS011;43484;43.608;1.458;2023-04-03T09:20:01;6.85;;;2.28;;
49722;SDS011;43484;43.608;1.458;2023-04-03T09:22:31;7.07;;;3.05;;
49722;SDS011;43484;43.608;1.458;2023-04-03T09:25:15;8.68;;;2.25;;
49722;SDS011;43484;43.608;1.458;2023-04-03T09:27:59;5.93;;;2.22;;
49722;SDS011;43484;43.608;1.458;2023-04-03T09:30:27;4.90;;;2.20;;
49722;SDS011;43484;43.608;1.458;2023-04-03T09:32:56;8.35;;;1.90;;
49722;SDS011;43484;43.608;1.458;2023-04-03T09:46:15;7.38;;;1.80;;
49722;SDS011;43484;43.608;1.458;2023-04-03T09:48:51;5.20;;;1.80;;
49722;SDS011;43484;43.608;1.458;2023-04-03T09:51:33;6.85;;;1.77;;
49722;SDS011;43484;43.608;1.458;2023-04-03T09:54:00;6.10;;;1.50;;
49722;SDS011;43484;43.608;1.458;2023-04-03T09:56:53;6.68;;;1.70;;
49722;SDS011;43484;43.608;1.458;2023-04-03T09:59:22;5.05;;;1.42;;
49722;SDS011;43484;43.608;1.458;2023-04-03T10:02:50;6.57;;;1.75;;
49722;SDS011;43484;43.608;1.458;2023-04-03T10:04:44;10.38;;;2.05;;
49722;SDS011;43484;43.608;1.458;2023-04-03T10:07:26;8.50;;;1.73;;
49722;SDS011;43484;43.608;1.458;2023-04-03T10:10:00;7.63;;;1.48;;
49722;SDS011;43484;43.608;1.458;2023-04-03T10:12:30;7.15;;;1.10;;
49722;SDS011;43484;43.608;1.458;2023-04-03T10:14:59;8.18;;;1.42;;
49722;SDS011;43484;43.608;1.458;2023-04-03T10:20:23;2.08;;;1.23;;
49722;SDS011;43484;43.608;1.458;2023-04-03T10:25:38;8.57;;;2.10;;
49722;SDS011;43484;43.608;1.458;2023-04-03T10:31:01;2.58;;;0.90;;
49722;SDS011;43484;43.608;1.458;2023-04-03T10:33:56;4.07;;;1.05;;
49722;SDS011;43484;43.608;1.458;2023-04-03T10:37:04;1.52;;;1.13;;
49722;SDS011;43484;43.608;1.458;2023-04-03T10:49:05;2.78;;;1.17;;
49722;SDS011;43484;43.608;1.458;2023-04-03T10:51:47;7.45;;;1.13;;
49722;SDS011;43484;43.608;1.458;2023-04-03T10:54:25;2.60;;;0.90;;
49722;SDS011;43484;43.608;1.458;2023-04-03T10:57:05;2.38;;;1.00;;
49722;SDS011;43484;43.608;1.458;2023-04-03T10:59:46;5.10;;;1.00;;
49722;SDS011;43484;43.608;1.458;2023-04-03T11:02:35;3.40;;;1.10;;
49722;SDS011;43484;43.608;1.458;2023-04-03T11:05:06;3.78;;;0.85;;
49722;SDS011;43484;43.608;1.458;2023-04-03T11:07:47;2.67;;;0.80;;
49722;SDS011;43484;43.608;1.458;2023-04-03T11:10:22;4.05;;;0.65;;
49722;SDS011;43484;43.608;1.458;2023-04-03T11:13:20;3.15;;;0.85;;
49722;SDS011;43484;43.608;1.458;2023-04-03T11:15:54;5.50;;;1.15;;
49722;SDS011;43484;43.608;1.458;2023-04-03T11:18:22;2.47;;;0.82;;
49722;SDS011;43484;43.608;1.458;2023-04-03T11:20:58;1.60;;;0.60;;
49722;SDS011;43484;43.608;1.458;2023-04-03T11:23:40;3.83;;;0.68;;
49722;SDS011;43484;43.608;1.458;2023-04-03T11:26:19;2.03;;;0.70;;
49722;SDS011;43484;43.608;1.458;2023-04-03T11:28:53;4.75;;;0.85;;
49722;SDS011;43484;43.608;1.458;2023-04-03T11:31:30;2.08;;;0.52;;
49722;SDS011;43484;43.608;1.458;2023-04-03T11:34:18;3.58;;;0.77;;
49722;SDS011;43484;43.608;1.458;2023-04-03T11:36:58;2.78;;;0.95;;
49722;SDS011;43484;43.608;1.458;2023-04-03T11:39:30;2.03;;;0.60;;
49722;SDS011;43484;43.608;1.458;2023-04-03T11:42:46;3.08;;;1.00;;
49722;SDS011;43484;43.608;1.458;2023-04-03T11:45:16;1.90;;;0.70;;
49722;SDS011;43484;43.608;1.458;2023-04-03T11:47:44;7.38;;;0.90;;
49722;SDS011;43484;43.608;1.458;2023-04-03T11:50:48;3.60;;;0.95;;
49722;SDS011;43484;43.608;1.458;2023-04-03T11:58:19;3.13;;;0.90;;
49722;SDS011;43484;43.608;1.458;2023-04-03T12:16:23;7.45;;;1.15;;
49722;SDS011;43484;43.608;1.458;2023-04-03T12:21:20;5.65;;;0.80;;
49722;SDS011;43484;43.608;1.458;2023-04-03T12:40:50;1.45;;;0.93;;
49722;SDS011;43484;43.608;1.458;2023-04-03T12:46:38;2.17;;;0.80;;
49722;SDS011;43484;43.608;1.458;2023-04-03T12:51:55;6.88;;;0.90;;
49722;SDS011;43484;43.608;1.458;2023-04-03T12:54:23;3.35;;;0.85;;
49722;SDS011;43484;43.608;1.458;2023-04-03T12:59:55;7.03;;;1.10;;
49722;SDS011;43484;43.608;1.458;2023-04-03T13:02:30;2.80;;;0.98;;
49722;SDS011;43484;43.608;1.458;2023-04-03T13:05:05;4.82;;;1.00;;
49722;SDS011;43484;43.608;1.458;2023-04-03T13:07:34;2.65;;;1.00;;
49722;SDS011;43484;43.608;1.458;2023-04-03T13:15:15;28.30;;;2.33;;
49722;SDS011;43484;43.608;1.458;2023-04-03T13:17:49;3.72;;;0.80;;
49722;SDS011;43484;43.608;1.458;2023-04-03T13:20:26;3.70;;;1.05;;
49722;SDS011;43484;43.608;1.458;2023-04-03T13:23:02;5.63;;;0.90;;
49722;SDS011;43484;43.608;1.458;2023-04-03T13:25:32;5.20;;;1.05;;
49722;SDS011;43484;43.608;1.458;2023-04-03T13:28:03;6.35;;;1.02;;
49722;SDS011;43484;43.608;1.458;2023-04-03T13:30:39;5.63;;;0.90;;
49722;SDS011;43484;43.608;1.458;2023-04-03T13:33:22;6.10;;;0.98;;
49722;SDS011;43484;43.608;1.458;2023-04-03T13:38:46;3.80;;;0.88;;
49722;SDS011;43484;43.608;1.458;2023-04-03T13:41:34;6.82;;;1.10;;
49722;SDS011;43484;43.608;1.458;2023-04-03T13:46:54;4.75;;;1.00;;
49722;SDS011;43484;43.608;1.458;2023-04-03T13:51:49;4.10;;;1.00;;
49722;SDS011;43484;43.608;1.458;2023-04-03T13:54:36;4.78;;;1.45;;
49722;SDS011;43484;43.608;1.458;2023-04-03T13:57:11;2.55;;;0.90;;
49722;SDS011;43484;43.608;1.458;2023-04-03T13:59:40;3.22;;;0.90;;
49722;SDS011;43484;43.608;1.458;2023-04-03T14:04:49;1.83;;;0.70;;
49722;SDS011;43484;43.608;1.458;2023-04-03T14:07:24;3.13;;;1.08;;
49722;SDS011;43484;43.608;1.458;2023-04-03T14:09:51;4.60;;;1.25;;
49722;SDS011;43484;43.608;1.458;2023-04-03T14:12:40;6.78;;;1.35;;
49722;SDS011;43484;43.608;1.458;2023-04-03T14:15:18;3.75;;;1.40;;
49722;SDS011;43484;43.608;1.458;2023-04-03T14:17:50;5.28;;;1.48;;
49722;SDS011;43484;43.608;1.458;2023-04-03T14:20:22;5.05;;;1.05;;
49722;SDS011;43484;43.608;1.458;2023-04-03T14:22:51;6.18;;;1.30;;
49722;SDS011;43484;43.608;1.458;2023-04-03T14:25:18;8.93;;;1.20;;
49722;SDS011;43484;43.608;1.458;2023-04-03T14:27:47;4.35;;;1.00;;
49722;SDS011;43484;43.608;1.458;2023-04-03T14:30:18;3.05;;;0.95;;
49722;SDS011;43484;43.608;1.458;2023-04-03T14:32:48;2.15;;;0.93;;
49722;SDS011;43484;43.608;1.458;2023-04-03T14:35:16;3.88;;;1.00;;
49722;SDS011;43484;43.608;1.458;2023-04-03T14:37:44;3.65;;;0.90;;
49722;SDS011;43484;43.608;1.458;2023-04-03T14:40:12;2.72;;;1.00;;
49722;SDS011;43484;43.608;1.458;2023-04-03T14:42:44;4.88;;;1.33;;
49722;SDS011;43484;43.608;1.458;2023-04-03T14:45:13;3.47;;;1.05;;
49722;SDS011;43484;43.608;1.458;2023-04-03T14:47:51;3.80;;;1.08;;
49722;SDS011;43484;43.608;1.458;2023-04-03T14:50:21;6.00;;;1.30;;
49722;SDS011;43484;43.608;1.458;2023-04-03T14:52:52;4.97;;;1.42;;
49722;SDS011;43484;43.608;1.458;2023-04-03T14:55:23;1.80;;;1.00;;
49722;SDS011;43484;43.608;1.458;2023-04-03T14:57:51;4.47;;;1.20;;
49722;SDS011;43484;43.608;1.458;2023-04-03T15:00:19;8.25;;;1.10;;
49722;SDS011;43484;43.608;1.458;2023-04-03T15:02:47;2.83;;;1.00;;
49722;SDS011;43484;43.608;1.458;2023-04-03T15:05:15;3.70;;;1.05;;
49722;SDS011;43484;43.608;1.458;2023-04-03T15:07:43;2.45;;;1.33;;
49722;SDS011;43484;43.608;1.458;2023-04-03T15:10:18;11.00;;;4.47;;
49722;SDS011;43484;43.608;1.458;2023-04-03T15:12:46;6.07;;;0.95;;
49722;SDS011;43484;43.608;1.458;2023-04-03T15:15:15;3.65;;;0.80;;
49722;SDS011;43484;43.608;1.458;2023-04-03T15:17:43;6.25;;;1.60;;
49722;SDS011;43484;43.608;1.458;2023-04-03T15:20:18;8.77;;;1.45;;
49722;SDS011;43484;43.608;1.458;2023-04-03T15:22:46;4.18;;;1.00;;
49722;SDS011;43484;43.608;1.458;2023-04-03T15:25:13;3.38;;;1.10;;
49722;SDS011;43484;43.608;1.458;2023-04-03T15:27:40;4.68;;;1.00;;
49722;SDS011;43484;43.608;1.458;2023-04-03T15:30:08;3.35;;;1.00;;
49722;SDS011;43484;43.608;1.458;2023-04-03T15:32:39;2.92;;;1.00;;
49722;SDS011;43484;43.608;1.458;2023-04-03T15:35:06;1.85;;;0.60;;
49722;SDS011;43484;43.608;1.458;2023-04-03T15:37:33;5.63;;;1.30;;
49722;SDS011;43484;43.608;1.458;2023-04-03T15:39:59;3.72;;;0.75;;
49722;SDS011;43484;43.608;1.458;2023-04-03T15:42:26;4.38;;;1.17;;
49722;SDS011;43484;43.608;1.458;2023-04-03T15:44:53;2.42;;;0.60;;
49722;SDS011;43484;43.608;1.458;2023-04-03T15:47:19;2.83;;;0.90;;
49722;SDS011;43484;43.608;1.458;2023-04-03T15:49:46;4.10;;;0.93;;
49722;SDS011;43484;43.608;1.458;2023-04-03T15:52:12;2.78;;;1.10;;
49722;SDS011;43484;43.608;1.458;2023-04-03T15:54:39;3.33;;;1.17;;
49722;SDS011;43484;43.608;1.458;2023-04-03T15:57:06;5.22;;;1.33;;
49722;SDS011;43484;43.608;1.458;2023-04-03T15:59:33;4.10;;;0.80;;
49722;SDS011;43484;43.608;1.458;2023-04-03T16:01:59;1.48;;;0.85;;
49722;SDS011;43484;43.608;1.458;2023-04-03T16:04:27;6.07;;;2.10;;
49722;SDS011;43484;43.608;1.458;2023-04-03T16:06:54;2.50;;;1.08;;
49722;SDS011;43484;43.608;1.458;2023-04-03T16:09:21;5.45;;;1.42;;
49722;SDS011;43484;43.608;1.458;2023-04-03T16:11:48;2.05;;;0.80;;
49722;SDS011;43484;43.608;1.458;2023-04-03T16:14:15;4.55;;;0.95;;
49722;SDS011;43484;43.608;1.458;2023-04-03T16:16:41;3.67;;;0.95;;
49722;SDS011;43484;43.608;1.458;2023-04-03T16:19:08;2.70;;;0.70;;
49722;SDS011;43484;43.608;1.458;2023-04-03T16:21:35;2.58;;;0.80;;
49722;SDS011;43484;43.608;1.458;2023-04-03T16:24:02;8.18;;;0.88;;
49722;SDS011;43484;43.608;1.458;2023-04-03T16:26:29;3.20;;;1.13;;
49722;SDS011;43484;43.608;1.458;2023-04-03T16:28:56;2.92;;;0.82;;
49722;SDS011;43484;43.608;1.458;2023-04-03T16:31:23;7.55;;;1.13;;
49722;SDS011;43484;43.608;1.458;2023-04-03T16:33:51;4.55;;;1.40;;
49722;SDS011;43484;43.608;1.458;2023-04-03T16:36:17;2.58;;;1.00;;
49722;SDS011;43484;43.608;1.458;2023-04-03T16:38:44;2.08;;;0.70;;
49722;SDS011;43484;43.608;1.458;2023-04-03T16:41:11;1.92;;;1.13;;
49722;SDS011;43484;43.608;1.458;2023-04-03T16:43:37;3.65;;;0.90;;
49722;SDS011;43484;43.608;1.458;2023-04-03T16:46:04;2.80;;;0.90;;
49722;SDS011;43484;43.608;1.458;2023-04-03T16:48:31;4.18;;;1.45;;
49722;SDS011;43484;43.608;1.458;2023-04-03T16:50:58;5.45;;;0.73;;
49722;SDS011;43484;43.608;1.458;2023-04-03T16:53:26;2.97;;;1.00;;
49722;SDS011;43484;43.608;1.458;2023-04-03T16:55:53;3.65;;;0.88;;
49722;SDS011;43484;43.608;1.458;2023-04-03T16:58:20;1.85;;;0.68;;
49722;SDS011;43484;43.608;1.458;2023-04-03T17:00:49;3.88;;;1.10;;